sensor_id;sensor_type;location;lat;lon;timestamp;temperature;humidity
1704;DHT22;849;48.780;9.216;2023-04-24T00:00:09;14.60;99.90
1704;DHT22;849;48.780;9.216;2023-04-24T00:02:36;14.50;99.90
1704;DHT22;849;48.780;9.216;2023-04-24T00:05:06;14.60;99.90
1704;DHT22;849;48.780;9.216;2023-04-24T00:07:33;14.30;99.90
1704;DHT22;849;48.780;9.216;2023-04-24T00:09:59;14.10;99.90
1704;DHT22;849;48.780;9.216;2023-04-24T00:12:25;14.20;99.90
1704;DHT22;849;48.780;9.216;2023-04-24T00:14:52;14.20;99.90
1704;DHT22;849;48.780;9.216;2023-04-24T00:17:18;14.20;99.90
1704;DHT22;849;48.780;9.216;2023-04-24T00:19:47;14.10;99.90
1704;DHT22;849;48.780;9.216;2023-04-24T00:22:13;14.30;99.90
1704;DHT22;849;48.780;9.216;2023-04-24T00:24:39;14.50;99.90
1704;DHT22;849;48.780;9.216;2023-04-24T00:27:05;14.60;99.90
1704;DHT22;849;48.780;9.216;2023-04-24T00:29:30;14.70;99.90
1704;DHT22;849;48.780;9.216;2023-04-24T00:31:57;14.50;99.90
1704;DHT22;849;48.780;9.216;2023-04-24T00:34:22;14.60;99.90
1704;DHT22;849;48.780;9.216;2023-04-24T00:36:48;14.60;99.90
1704;DHT22;849;48.780;9.216;2023-04-24T00:39:20;14.60;99.90
1704;DHT22;849;48.780;9.216;2023-04-24T00:41:47;14.50;99.90
1704;DHT22;849;48.780;9.216;2023-04-24T00:44:14;14.50;99.90
1704;DHT22;849;48.780;9.216;2023-04-24T00:46:42;14.70;99.90
1704;DHT22;849;48.780;9.216;2023-04-24T00:49:08;14.80;99.90
1704;DHT22;849;48.780;9.216;2023-04-24T00:51:33;14.70;99.90
1704;DHT22;849;48.780;9.216;2023-04-24T00:54:00;14.60;99.90
1704;DHT22;849;48.780;9.216;2023-04-24T00:56:26;14.70;99.90
1704;DHT22;849;48.780;9.216;2023-04-24T00:58:53;14.70;99.90
1704;DHT22;849;48.780;9.216;2023-04-24T01:01:22;14.90;99.90
1704;DHT22;849;48.780;9.216;2023-04-24T01:03:51;14.90;99.90
1704;DHT22;849;48.780;9.216;2023-04-24T01:06:18;14.90;99.90
1704;DHT22;849;48.780;9.216;2023-04-24T01:08:45;14.90;99.90
1704;DHT22;849;48.780;9.216;2023-04-24T01:11:11;14.70;99.90
1704;DHT22;849;48.780;9.216;2023-04-24T01:13:37;14.60;99.90
1704;DHT22;849;48.780;9.216;2023-04-24T01:16:03;14.60;99.90
1704;DHT22;849;48.780;9.216;2023-04-24T01:18:28;14.60;99.90
1704;DHT22;849;48.780;9.216;2023-04-24T01:20:58;14.60;99.90
1704;DHT22;849;48.780;9.216;2023-04-24T01:23:24;14.60;99.90
1704;DHT22;849;48.780;9.216;2023-04-24T01:25:50;14.60;99.90
1704;DHT22;849;48.780;9.216;2023-04-24T01:28:17;14.70;99.90
1704;DHT22;849;48.780;9.216;2023-04-24T01:30:45;14.80;99.90
1704;DHT22;849;48.780;9.216;2023-04-24T01:33:10;14.80;99.90
1704;DHT22;849;48.780;9.216;2023-04-24T01:35:37;15.00;99.90
1704;DHT22;849;48.780;9.216;2023-04-24T01:38:03;14.70;99.90
1704;DHT22;849;48.780;9.216;2023-04-24T01:40:30;14.70;99.90
1704;DHT22;849;48.780;9.216;2023-04-24T01:42:56;14.70;99.90
1704;DHT22;849;48.780;9.216;2023-04-24T01:45:22;14.70;99.90
1704;DHT22;849;48.780;9.216;2023-04-24T01:47:49;14.70;99.90
1704;DHT22;849;48.780;9.216;2023-04-24T01:50:15;14.80;99.90
1704;DHT22;849;48.780;9.216;2023-04-24T01:52:41;14.80;99.90
1704;DHT22;849;48.780;9.216;2023-04-24T01:55:08;14.70;99.90
1704;DHT22;849;48.780;9.216;2023-04-24T01:57:33;14.80;99.90
1704;DHT22;849;48.780;9.216;2023-04-24T01:59:59;14.70;99.90
1704;DHT22;849;48.780;9.216;2023-04-24T02:02:25;14.70;99.90
1704;DHT22;849;48.780;9.216;2023-04-24T02:04:55;14.70;99.90
1704;DHT22;849;48.780;9.216;2023-04-24T02:07:21;14.80;99.90
1704;DHT22;849;48.780;9.216;2023-04-24T02:09:47;14.70;99.90
1704;DHT22;849;48.780;9.216;2023-04-24T02:12:13;14.70;99.90
1704;DHT22;849;48.780;9.216;2023-04-24T02:14:39;14.60;99.90
1704;DHT22;849;48.780;9.216;2023-04-24T02:17:05;14.70;99.90
1704;DHT22;849;48.780;9.216;2023-04-24T02:19:31;14.60;99.90
1704;DHT22;849;48.780;9.216;2023-04-24T02:21:56;14.60;99.90
1704;DHT22;849;48.780;9.216;2023-04-24T02:24:22;14.50;99.90
1704;DHT22;849;48.780;9.216;2023-04-24T02:26:47;14.60;99.90
1704;DHT22;849;48.780;9.216;2023-04-24T02:29:13;14.50;99.90
1704;DHT22;849;48.780;9.216;2023-04-24T02:31:40;14.60;99.90
1704;DHT22;849;48.780;9.216;2023-04-24T02:34:05;14.60;99.90
1704;DHT22;849;48.780;9.216;2023-04-24T02:36:31;14.70;99.90
1704;DHT22;849;48.780;9.216;2023-04-24T02:38:57;14.70;99.90
1704;DHT22;849;48.780;9.216;2023-04-24T02:41:22;14.70;99.90
1704;DHT22;849;48.780;9.216;2023-04-24T02:43:48;14.60;99.90
1704;DHT22;849;48.780;9.216;2023-04-24T02:46:14;14.50;99.90
1704;DHT22;849;48.780;9.216;2023-04-24T02:48:39;14.60;99.90
1704;DHT22;849;48.780;9.216;2023-04-24T02:51:05;14.40;99.90
1704;DHT22;849;48.780;9.216;2023-04-24T02:53:32;14.20;99.90
1704;DHT22;849;48.780;9.216;2023-04-24T02:55:58;14.30;99.90
1704;DHT22;849;48.780;9.216;2023-04-24T02:58:24;14.20;99.90
1704;DHT22;849;48.780;9.216;2023-04-24T03:00:54;14.10;99.90
1704;DHT22;849;48.780;9.216;2023-04-24T03:03:21;14.30;99.90
1704;DHT22;849;48.780;9.216;2023-04-24T03:05:47;14.40;99.90
1704;DHT22;849;48.780;9.216;2023-04-24T03:08:12;14.40;99.90
1704;DHT22;849;48.780;9.216;2023-04-24T03:10:40;14.50;99.90
1704;DHT22;849;48.780;9.216;2023-04-24T03:13:06;14.60;99.90
1704;DHT22;849;48.780;9.216;2023-04-24T03:15:31;14.60;99.90
1704;DHT22;849;48.780;9.216;2023-04-24T03:17:57;14.50;99.90
1704;DHT22;849;48.780;9.216;2023-04-24T03:20:23;14.50;99.90
1704;DHT22;849;48.780;9.216;2023-04-24T03:22:49;14.50;99.90
1704;DHT22;849;48.780;9.216;2023-04-24T03:25:15;14.40;99.90
1704;DHT22;849;48.780;9.216;2023-04-24T03:27:40;14.40;99.90
1704;DHT22;849;48.780;9.216;2023-04-24T03:30:07;14.30;99.90
1704;DHT22;849;48.780;9.216;2023-04-24T03:32:33;14.20;99.90
1704;DHT22;849;48.780;9.216;2023-04-24T03:34:59;14.30;99.90
1704;DHT22;849;48.780;9.216;2023-04-24T03:37:24;14.00;99.90
1704;DHT22;849;48.780;9.216;2023-04-24T03:39:51;14.00;99.90
1704;DHT22;849;48.780;9.216;2023-04-24T03:42:17;14.00;99.90
1704;DHT22;849;48.780;9.216;2023-04-24T03:44:43;14.00;99.90
1704;DHT22;849;48.780;9.216;2023-04-24T03:47:08;14.20;99.90
1704;DHT22;849;48.780;9.216;2023-04-24T03:49:34;14.10;99.90
1704;DHT22;849;48.780;9.216;2023-04-24T03:52:00;14.10;99.90
1704;DHT22;849;48.780;9.216;2023-04-24T03:54:26;14.20;99.90
1704;DHT22;849;48.780;9.216;2023-04-24T03:56:51;14.20;99.90
1704;DHT22;849;48.780;9.216;2023-04-24T03:59:17;14.20;99.90
1704;DHT22;849;48.780;9.216;2023-04-24T04:01:43;14.00;99.90
1704;DHT22;849;48.780;9.216;2023-04-24T04:04:09;14.00;99.90
1704;DHT22;849;48.780;9.216;2023-04-24T04:06:34;14.10;99.90
1704;DHT22;849;48.780;9.216;2023-04-24T04:09:01;14.00;99.90
1704;DHT22;849;48.780;9.216;2023-04-24T04:11:28;13.90;99.90
1704;DHT22;849;48.780;9.216;2023-04-24T04:13:54;13.80;99.90
1704;DHT22;849;48.780;9.216;2023-04-24T04:16:20;14.00;99.90
1704;DHT22;849;48.780;9.216;2023-04-24T04:18:46;14.10;99.90
1704;DHT22;849;48.780;9.216;2023-04-24T04:21:12;13.80;99.90
1704;DHT22;849;48.780;9.216;2023-04-24T04:23:37;13.70;99.90
1704;DHT22;849;48.780;9.216;2023-04-24T04:26:03;13.90;99.90
1704;DHT22;849;48.780;9.216;2023-04-24T04:28:30;14.00;99.90
1704;DHT22;849;48.780;9.216;2023-04-24T04:30:58;14.00;99.90
1704;DHT22;849;48.780;9.216;2023-04-24T04:33:24;13.70;99.90
1704;DHT22;849;48.780;9.216;2023-04-24T04:35:50;13.60;99.90
1704;DHT22;849;48.780;9.216;2023-04-24T04:38:22;13.50;99.90
1704;DHT22;849;48.780;9.216;2023-04-24T04:40:48;13.20;99.90
1704;DHT22;849;48.780;9.216;2023-04-24T04:43:13;13.30;99.90
1704;DHT22;849;48.780;9.216;2023-04-24T04:45:40;13.30;99.90
1704;DHT22;849;48.780;9.216;2023-04-24T04:48:08;13.50;99.90
1704;DHT22;849;48.780;9.216;2023-04-24T04:50:35;13.70;99.90
1704;DHT22;849;48.780;9.216;2023-04-24T04:53:01;13.50;99.90
1704;DHT22;849;48.780;9.216;2023-04-24T04:55:27;13.60;99.90
1704;DHT22;849;48.780;9.216;2023-04-24T04:57:52;13.60;99.90
1704;DHT22;849;48.780;9.216;2023-04-24T05:00:18;13.40;99.90
1704;DHT22;849;48.780;9.216;2023-04-24T05:02:44;13.40;99.90
1704;DHT22;849;48.780;9.216;2023-04-24T05:05:10;13.50;99.90
1704;DHT22;849;48.780;9.216;2023-04-24T05:07:36;13.50;99.90
1704;DHT22;849;48.780;9.216;2023-04-24T05:10:02;13.50;99.90
1704;DHT22;849;48.780;9.216;2023-04-24T05:12:27;13.40;99.90
1704;DHT22;849;48.780;9.216;2023-04-24T05:14:53;13.30;99.90
1704;DHT22;849;48.780;9.216;2023-04-24T05:17:18;13.40;99.90
1704;DHT22;849;48.780;9.216;2023-04-24T05:19:44;13.40;99.90
1704;DHT22;849;48.780;9.216;2023-04-24T05:22:10;13.50;99.90
1704;DHT22;849;48.780;9.216;2023-04-24T05:24:37;13.50;99.90
1704;DHT22;849;48.780;9.216;2023-04-24T05:27:04;13.50;99.90
1704;DHT22;849;48.780;9.216;2023-04-24T05:29:30;13.60;99.90
1704;DHT22;849;48.780;9.216;2023-04-24T05:31:57;13.70;99.90
1704;DHT22;849;48.780;9.216;2023-04-24T05:34:23;13.70;99.90
1704;DHT22;849;48.780;9.216;2023-04-24T05:36:48;13.70;99.90
1704;DHT22;849;48.780;9.216;2023-04-24T05:39:16;13.50;99.90
1704;DHT22;849;48.780;9.216;2023-04-24T05:41:41;13.50;99.90
1704;DHT22;849;48.780;9.216;2023-04-24T05:44:07;13.70;99.90
1704;DHT22;849;48.780;9.216;2023-04-24T05:46:33;13.60;99.90
1704;DHT22;849;48.780;9.216;2023-04-24T05:48:58;13.70;99.90
1704;DHT22;849;48.780;9.216;2023-04-24T05:51:24;13.80;99.90
1704;DHT22;849;48.780;9.216;2023-04-24T05:53:51;13.80;99.90
1704;DHT22;849;48.780;9.216;2023-04-24T05:56:17;13.80;99.90
1704;DHT22;849;48.780;9.216;2023-04-24T05:58:43;13.80;99.90
1704;DHT22;849;48.780;9.216;2023-04-24T06:01:09;13.90;99.90
1704;DHT22;849;48.780;9.216;2023-04-24T06:03:35;14.00;99.90
1704;DHT22;849;48.780;9.216;2023-04-24T06:06:00;14.00;99.90
1704;DHT22;849;48.780;9.216;2023-04-24T06:08:26;14.00;99.90
1704;DHT22;849;48.780;9.216;2023-04-24T06:10:52;14.10;99.90
1704;DHT22;849;48.780;9.216;2023-04-24T06:13:17;14.10;99.90
1704;DHT22;849;48.780;9.216;2023-04-24T06:15:43;14.20;99.90
1704;DHT22;849;48.780;9.216;2023-04-24T06:18:09;14.20;99.90
1704;DHT22;849;48.780;9.216;2023-04-24T06:20:38;14.00;99.90
1704;DHT22;849;48.780;9.216;2023-04-24T06:23:04;14.00;99.90
1704;DHT22;849;48.780;9.216;2023-04-24T06:25:30;14.10;99.90
1704;DHT22;849;48.780;9.216;2023-04-24T06:27:56;14.20;99.90
1704;DHT22;849;48.780;9.216;2023-04-24T06:30:22;14.20;99.90
1704;DHT22;849;48.780;9.216;2023-04-24T06:32:48;14.20;99.90
1704;DHT22;849;48.780;9.216;2023-04-24T06:35:13;13.70;99.90
1704;DHT22;849;48.780;9.216;2023-04-24T06:37:41;13.70;99.90
1704;DHT22;849;48.780;9.216;2023-04-24T06:40:07;13.90;99.90
1704;DHT22;849;48.780;9.216;2023-04-24T06:42:33;14.10;99.90
1704;DHT22;849;48.780;9.216;2023-04-24T06:44:59;14.20;99.90
1704;DHT22;849;48.780;9.216;2023-04-24T06:47:24;14.20;99.90
1704;DHT22;849;48.780;9.216;2023-04-24T06:49:50;14.20;99.90
1704;DHT22;849;48.780;9.216;2023-04-24T06:52:18;14.20;99.90
1704;DHT22;849;48.780;9.216;2023-04-24T06:54:44;14.20;99.90
1704;DHT22;849;48.780;9.216;2023-04-24T06:57:09;14.00;99.90
1704;DHT22;849;48.780;9.216;2023-04-24T06:59:36;13.40;99.90
1704;DHT22;849;48.780;9.216;2023-04-24T07:02:02;13.50;99.90
1704;DHT22;849;48.780;9.216;2023-04-24T07:04:28;13.40;99.90
1704;DHT22;849;48.780;9.216;2023-04-24T07:06:54;13.40;99.90
1704;DHT22;849;48.780;9.216;2023-04-24T07:09:22;13.50;99.90
1704;DHT22;849;48.780;9.216;2023-04-24T07:11:49;13.60;99.90
1704;DHT22;849;48.780;9.216;2023-04-24T07:14:15;13.80;99.90
1704;DHT22;849;48.780;9.216;2023-04-24T07:16:42;14.10;99.90
1704;DHT22;849;48.780;9.216;2023-04-24T07:19:07;14.20;99.90
1704;DHT22;849;48.780;9.216;2023-04-24T07:21:33;14.10;99.90
1704;DHT22;849;48.780;9.216;2023-04-24T07:23:59;14.10;99.90
1704;DHT22;849;48.780;9.216;2023-04-24T07:26:26;14.10;99.90
1704;DHT22;849;48.780;9.216;2023-04-24T07:28:52;14.00;99.90
1704;DHT22;849;48.780;9.216;2023-04-24T07:31:17;14.00;99.90
1704;DHT22;849;48.780;9.216;2023-04-24T07:33:43;14.00;99.90
1704;DHT22;849;48.780;9.216;2023-04-24T07:36:08;13.80;99.90
1704;DHT22;849;48.780;9.216;2023-04-24T07:38:44;13.70;99.90
1704;DHT22;849;48.780;9.216;2023-04-24T07:41:09;13.70;99.90
1704;DHT22;849;48.780;9.216;2023-04-24T07:43:35;13.60;99.90
1704;DHT22;849;48.780;9.216;2023-04-24T07:46:01;13.50;99.90
1704;DHT22;849;48.780;9.216;2023-04-24T07:48:27;13.70;99.90
1704;DHT22;849;48.780;9.216;2023-04-24T07:50:53;13.80;99.90
1704;DHT22;849;48.780;9.216;2023-04-24T07:53:19;13.70;99.90
1704;DHT22;849;48.780;9.216;2023-04-24T07:55:44;13.50;98.70
1704;DHT22;849;48.780;9.216;2023-04-24T07:58:10;13.30;99.90
1704;DHT22;849;48.780;9.216;2023-04-24T08:00:35;13.40;98.20
1704;DHT22;849;48.780;9.216;2023-04-24T08:03:01;13.40;98.20
1704;DHT22;849;48.780;9.216;2023-04-24T08:05:27;13.60;97.90
1704;DHT22;849;48.780;9.216;2023-04-24T08:07:54;13.70;97.40
1704;DHT22;849;48.780;9.216;2023-04-24T08:10:24;13.80;97.40
1704;DHT22;849;48.780;9.216;2023-04-24T08:12:50;13.60;95.60
1704;DHT22;849;48.780;9.216;2023-04-24T08:15:15;13.40;96.10
1704;DHT22;849;48.780;9.216;2023-04-24T08:17:41;13.50;96.40
1704;DHT22;849;48.780;9.216;2023-04-24T08:20:08;13.50;96.00
1704;DHT22;849;48.780;9.216;2023-04-24T08:22:39;13.50;94.30
1704;DHT22;849;48.780;9.216;2023-04-24T08:25:06;13.60;95.80
1704;DHT22;849;48.780;9.216;2023-04-24T08:27:32;13.50;96.40
1704;DHT22;849;48.780;9.216;2023-04-24T08:29:57;13.60;94.70
1704;DHT22;849;48.780;9.216;2023-04-24T08:32:24;13.60;94.10
1704;DHT22;849;48.780;9.216;2023-04-24T08:34:50;13.80;96.40
1704;DHT22;849;48.780;9.216;2023-04-24T08:37:18;14.10;96.90
1704;DHT22;849;48.780;9.216;2023-04-24T08:39:44;14.10;94.40
1704;DHT22;849;48.780;9.216;2023-04-24T08:42:11;14.30;93.80
1704;DHT22;849;48.780;9.216;2023-04-24T08:44:38;14.30;92.90
1704;DHT22;849;48.780;9.216;2023-04-24T08:47:05;13.90;93.00
1704;DHT22;849;48.780;9.216;2023-04-24T08:49:31;13.70;93.50
1704;DHT22;849;48.780;9.216;2023-04-24T08:51:57;13.70;92.70
1704;DHT22;849;48.780;9.216;2023-04-24T08:54:23;13.50;94.00
1704;DHT22;849;48.780;9.216;2023-04-24T08:56:50;13.30;93.10
1704;DHT22;849;48.780;9.216;2023-04-24T08:59:18;13.10;94.70
1704;DHT22;849;48.780;9.216;2023-04-24T09:01:45;13.30;95.10
1704;DHT22;849;48.780;9.216;2023-04-24T09:04:12;13.50;94.30
1704;DHT22;849;48.780;9.216;2023-04-24T09:06:40;13.30;94.60
1704;DHT22;849;48.780;9.216;2023-04-24T09:09:06;13.20;95.50
1704;DHT22;849;48.780;9.216;2023-04-24T09:11:32;13.30;95.00
1704;DHT22;849;48.780;9.216;2023-04-24T09:13:58;13.20;95.10
1704;DHT22;849;48.780;9.216;2023-04-24T09:16:25;13.40;96.60
1704;DHT22;849;48.780;9.216;2023-04-24T09:18:52;13.60;95.80
1704;DHT22;849;48.780;9.216;2023-04-24T09:21:21;13.60;95.40
1704;DHT22;849;48.780;9.216;2023-04-24T09:23:57;13.40;96.00
1704;DHT22;849;48.780;9.216;2023-04-24T09:26:24;13.10;96.50
1704;DHT22;849;48.780;9.216;2023-04-24T09:28:50;12.80;98.00
1704;DHT22;849;48.780;9.216;2023-04-24T09:31:18;12.40;98.80
1704;DHT22;849;48.780;9.216;2023-04-24T09:34:02;12.60;99.70
1704;DHT22;849;48.780;9.216;2023-04-24T09:36:35;12.40;99.80
1704;DHT22;849;48.780;9.216;2023-04-24T09:39:13;12.30;99.90
1704;DHT22;849;48.780;9.216;2023-04-24T09:41:53;12.40;99.90
1704;DHT22;849;48.780;9.216;2023-04-24T09:44:24;12.50;99.90
1704;DHT22;849;48.780;9.216;2023-04-24T09:46:58;12.70;99.90
1704;DHT22;849;48.780;9.216;2023-04-24T09:49:29;12.80;99.90
1704;DHT22;849;48.780;9.216;2023-04-24T09:52:10;13.00;99.90
1704;DHT22;849;48.780;9.216;2023-04-24T09:54:37;13.30;99.90
1704;DHT22;849;48.780;9.216;2023-04-24T09:57:04;13.50;99.50
1704;DHT22;849;48.780;9.216;2023-04-24T09:59:30;13.30;97.10
1704;DHT22;849;48.780;9.216;2023-04-24T10:01:56;13.30;98.60
1704;DHT22;849;48.780;9.216;2023-04-24T10:04:26;13.50;97.70
1704;DHT22;849;48.780;9.216;2023-04-24T10:06:54;13.50;97.30
1704;DHT22;849;48.780;9.216;2023-04-24T10:09:22;13.60;95.60
1704;DHT22;849;48.780;9.216;2023-04-24T10:11:50;13.70;94.90
1704;DHT22;849;48.780;9.216;2023-04-24T10:14:18;13.60;93.70
1704;DHT22;849;48.780;9.216;2023-04-24T10:16:44;13.50;93.80
1704;DHT22;849;48.780;9.216;2023-04-24T10:19:12;13.40;91.40
1704;DHT22;849;48.780;9.216;2023-04-24T10:21:40;13.40;92.10
1704;DHT22;849;48.780;9.216;2023-04-24T10:24:08;13.30;91.40
1704;DHT22;849;48.780;9.216;2023-04-24T10:26:35;13.40;91.50
1704;DHT22;849;48.780;9.216;2023-04-24T10:29:01;13.50;87.30
1704;DHT22;849;48.780;9.216;2023-04-24T10:31:31;13.50;84.90
1704;DHT22;849;48.780;9.216;2023-04-24T10:33:58;13.60;86.70
1704;DHT22;849;48.780;9.216;2023-04-24T10:36:25;13.70;86.30
1704;DHT22;849;48.780;9.216;2023-04-24T10:38:54;13.90;84.90
1704;DHT22;849;48.780;9.216;2023-04-24T10:41:21;14.00;81.60
1704;DHT22;849;48.780;9.216;2023-04-24T10:44:11;13.80;83.40
1704;DHT22;849;48.780;9.216;2023-04-24T10:46:38;13.70;82.00
1704;DHT22;849;48.780;9.216;2023-04-24T10:49:05;13.50;82.20
1704;DHT22;849;48.780;9.216;2023-04-24T10:51:51;13.50;83.10
1704;DHT22;849;48.780;9.216;2023-04-24T10:56:52;13.70;85.00
1704;DHT22;849;48.780;9.216;2023-04-24T10:59:28;13.90;86.50
1704;DHT22;849;48.780;9.216;2023-04-24T11:02:00;14.10;83.20
1704;DHT22;849;48.780;9.216;2023-04-24T11:04:34;14.10;83.20
1704;DHT22;849;48.780;9.216;2023-04-24T11:07:03;13.90;85.50
1704;DHT22;849;48.780;9.216;2023-04-24T11:09:33;14.20;87.50
1704;DHT22;849;48.780;9.216;2023-04-24T11:12:05;14.30;86.40
1704;DHT22;849;48.780;9.216;2023-04-24T11:17:30;13.80;85.50
1704;DHT22;849;48.780;9.216;2023-04-24T11:20:04;13.80;84.10
1704;DHT22;849;48.780;9.216;2023-04-24T11:22:33;13.80;82.90
1704;DHT22;849;48.780;9.216;2023-04-24T11:25:01;13.70;85.80
1704;DHT22;849;48.780;9.216;2023-04-24T11:27:31;13.90;87.90
1704;DHT22;849;48.780;9.216;2023-04-24T11:30:01;14.00;86.00
1704;DHT22;849;48.780;9.216;2023-04-24T11:32:41;14.30;85.00
1704;DHT22;849;48.780;9.216;2023-04-24T11:35:08;14.20;82.10
1704;DHT22;849;48.780;9.216;2023-04-24T11:40:01;14.40;85.00
1704;DHT22;849;48.780;9.216;2023-04-24T11:42:28;14.50;82.30
1704;DHT22;849;48.780;9.216;2023-04-24T11:44:55;14.40;80.00
1704;DHT22;849;48.780;9.216;2023-04-24T11:47:28;14.50;80.80
1704;DHT22;849;48.780;9.216;2023-04-24T11:49:54;14.40;78.80
1704;DHT22;849;48.780;9.216;2023-04-24T11:52:20;14.00;81.20
1704;DHT22;849;48.780;9.216;2023-04-24T11:54:49;13.80;83.90
1704;DHT22;849;48.780;9.216;2023-04-24T11:57:23;13.60;83.80
1704;DHT22;849;48.780;9.216;2023-04-24T11:59:51;13.70;85.80
1704;DHT22;849;48.780;9.216;2023-04-24T12:02:24;13.60;84.70
1704;DHT22;849;48.780;9.216;2023-04-24T12:04:51;13.70;85.30
1704;DHT22;849;48.780;9.216;2023-04-24T12:07:17;13.60;90.00
1704;DHT22;849;48.780;9.216;2023-04-24T12:09:48;13.70;86.90
1704;DHT22;849;48.780;9.216;2023-04-24T12:12:15;13.60;87.10
1704;DHT22;849;48.780;9.216;2023-04-24T12:14:49;13.80;86.50
1704;DHT22;849;48.780;9.216;2023-04-24T12:17:16;13.70;86.60
1704;DHT22;849;48.780;9.216;2023-04-24T12:19:47;14.00;88.70
1704;DHT22;849;48.780;9.216;2023-04-24T12:22:13;13.90;82.70
1704;DHT22;849;48.780;9.216;2023-04-24T12:27:30;14.10;86.00
1704;DHT22;849;48.780;9.216;2023-04-24T12:29:58;14.00;84.30
1704;DHT22;849;48.780;9.216;2023-04-24T12:32:25;14.10;83.10
1704;DHT22;849;48.780;9.216;2023-04-24T12:34:52;14.00;85.20
1704;DHT22;849;48.780;9.216;2023-04-24T12:37:18;13.90;82.60
1704;DHT22;849;48.780;9.216;2023-04-24T12:40:07;13.90;80.70
1704;DHT22;849;48.780;9.216;2023-04-24T12:42:34;13.90;82.70
1704;DHT22;849;48.780;9.216;2023-04-24T12:45:02;13.90;81.70
1704;DHT22;849;48.780;9.216;2023-04-24T12:47:29;14.00;81.60
1704;DHT22;849;48.780;9.216;2023-04-24T12:49:55;14.00;82.80
1704;DHT22;849;48.780;9.216;2023-04-24T12:52:24;13.90;80.80
1704;DHT22;849;48.780;9.216;2023-04-24T12:54:53;14.00;81.50
1704;DHT22;849;48.780;9.216;2023-04-24T12:57:19;14.00;82.40
1704;DHT22;849;48.780;9.216;2023-04-24T12:59:45;13.90;80.00
1704;DHT22;849;48.780;9.216;2023-04-24T13:02:11;13.90;82.50
1704;DHT22;849;48.780;9.216;2023-04-24T13:04:37;14.00;79.60
1704;DHT22;849;48.780;9.216;2023-04-24T13:07:03;14.10;80.30
1704;DHT22;849;48.780;9.216;2023-04-24T13:09:28;14.00;82.20
1704;DHT22;849;48.780;9.216;2023-04-24T13:11:55;13.90;86.60
1704;DHT22;849;48.780;9.216;2023-04-24T13:14:22;14.00;90.00
1704;DHT22;849;48.780;9.216;2023-04-24T13:16:48;13.40;95.60
1704;DHT22;849;48.780;9.216;2023-04-24T13:19:13;13.00;96.90
1704;DHT22;849;48.780;9.216;2023-04-24T13:21:39;13.30;99.90
1704;DHT22;849;48.780;9.216;2023-04-24T13:24:05;13.60;99.90
1704;DHT22;849;48.780;9.216;2023-04-24T13:26:31;13.80;99.90
1704;DHT22;849;48.780;9.216;2023-04-24T13:28:56;13.90;97.00
1704;DHT22;849;48.780;9.216;2023-04-24T13:31:22;13.90;97.30
1704;DHT22;849;48.780;9.216;2023-04-24T13:33:48;14.00;99.20
1704;DHT22;849;48.780;9.216;2023-04-24T13:36:13;14.20;99.90
1704;DHT22;849;48.780;9.216;2023-04-24T13:38:39;14.30;96.60
1704;DHT22;849;48.780;9.216;2023-04-24T13:41:05;14.20;96.80
1704;DHT22;849;48.780;9.216;2023-04-24T13:43:30;14.10;95.70
1704;DHT22;849;48.780;9.216;2023-04-24T13:45:56;14.40;98.00
1704;DHT22;849;48.780;9.216;2023-04-24T13:48:22;14.30;96.50
1704;DHT22;849;48.780;9.216;2023-04-24T13:50:47;14.20;94.10
1704;DHT22;849;48.780;9.216;2023-04-24T13:53:15;13.90;96.10
1704;DHT22;849;48.780;9.216;2023-04-24T13:55:40;14.00;95.60
1704;DHT22;849;48.780;9.216;2023-04-24T13:58:07;13.90;96.90
1704;DHT22;849;48.780;9.216;2023-04-24T14:00:33;13.50;99.20
1704;DHT22;849;48.780;9.216;2023-04-24T14:02:58;12.90;99.90
1704;DHT22;849;48.780;9.216;2023-04-24T14:05:24;12.90;99.90
1704;DHT22;849;48.780;9.216;2023-04-24T14:07:50;13.00;99.90
1704;DHT22;849;48.780;9.216;2023-04-24T14:10:16;12.90;99.90
1704;DHT22;849;48.780;9.216;2023-04-24T14:12:42;13.10;99.90
1704;DHT22;849;48.780;9.216;2023-04-24T14:15:08;13.60;99.90
1704;DHT22;849;48.780;9.216;2023-04-24T14:17:34;13.90;99.90
1704;DHT22;849;48.780;9.216;2023-04-24T14:20:00;13.90;99.90
1704;DHT22;849;48.780;9.216;2023-04-24T14:22:26;14.00;99.90
1704;DHT22;849;48.780;9.216;2023-04-24T14:24:51;14.30;99.90
1704;DHT22;849;48.780;9.216;2023-04-24T14:27:17;14.50;99.90
1704;DHT22;849;48.780;9.216;2023-04-24T14:29:42;14.80;99.90
1704;DHT22;849;48.780;9.216;2023-04-24T14:32:10;14.70;99.90
1704;DHT22;849;48.780;9.216;2023-04-24T14:34:36;14.50;99.90
1704;DHT22;849;48.780;9.216;2023-04-24T14:37:02;14.50;99.90
1704;DHT22;849;48.780;9.216;2023-04-24T14:39:28;14.80;99.90
1704;DHT22;849;48.780;9.216;2023-04-24T14:41:54;14.80;99.90
1704;DHT22;849;48.780;9.216;2023-04-24T14:44:20;15.00;99.90
1704;DHT22;849;48.780;9.216;2023-04-24T14:46:46;15.10;99.40
1704;DHT22;849;48.780;9.216;2023-04-24T14:49:11;15.50;99.20
1704;DHT22;849;48.780;9.216;2023-04-24T14:51:38;15.90;96.20
1704;DHT22;849;48.780;9.216;2023-04-24T14:54:03;15.90;95.20
1704;DHT22;849;48.780;9.216;2023-04-24T14:56:29;15.90;95.20
1704;DHT22;849;48.780;9.216;2023-04-24T14:58:55;15.90;94.50
1704;DHT22;849;48.780;9.216;2023-04-24T15:01:21;16.10;93.70
1704;DHT22;849;48.780;9.216;2023-04-24T15:03:46;16.60;92.50
1704;DHT22;849;48.780;9.216;2023-04-24T15:06:12;18.10;90.30
1704;DHT22;849;48.780;9.216;2023-04-24T15:08:38;19.80;87.20
1704;DHT22;849;48.780;9.216;2023-04-24T15:11:04;22.50;76.20
1704;DHT22;849;48.780;9.216;2023-04-24T15:13:29;23.20;63.10
1704;DHT22;849;48.780;9.216;2023-04-24T15:15:55;22.00;59.80
1704;DHT22;849;48.780;9.216;2023-04-24T15:18:21;20.30;62.40
1704;DHT22;849;48.780;9.216;2023-04-24T15:20:46;18.60;65.90
1704;DHT22;849;48.780;9.216;2023-04-24T15:23:12;17.60;69.10
1704;DHT22;849;48.780;9.216;2023-04-24T15:25:38;16.80;71.20
1704;DHT22;849;48.780;9.216;2023-04-24T15:28:04;16.00;73.90
1704;DHT22;849;48.780;9.216;2023-04-24T15:30:32;15.60;80.20
1704;DHT22;849;48.780;9.216;2023-04-24T15:32:59;15.60;79.80
1704;DHT22;849;48.780;9.216;2023-04-24T15:35:26;15.40;80.20
1704;DHT22;849;48.780;9.216;2023-04-24T15:37:51;15.30;84.40
1704;DHT22;849;48.780;9.216;2023-04-24T15:40:17;15.20;83.10
1704;DHT22;849;48.780;9.216;2023-04-24T15:42:43;15.10;82.50
1704;DHT22;849;48.780;9.216;2023-04-24T15:45:09;14.80;87.60
1704;DHT22;849;48.780;9.216;2023-04-24T15:47:35;14.30;94.80
1704;DHT22;849;48.780;9.216;2023-04-24T15:50:02;14.50;98.00
1704;DHT22;849;48.780;9.216;2023-04-24T15:52:27;15.10;98.10
1704;DHT22;849;48.780;9.216;2023-04-24T15:54:53;15.80;99.10
1704;DHT22;849;48.780;9.216;2023-04-24T15:57:20;16.50;98.90
1704;DHT22;849;48.780;9.216;2023-04-24T15:59:46;16.80;97.10
1704;DHT22;849;48.780;9.216;2023-04-24T16:02:13;16.90;96.70
1704;DHT22;849;48.780;9.216;2023-04-24T16:04:47;17.00;96.60
1704;DHT22;849;48.780;9.216;2023-04-24T16:07:14;17.90;95.60
1704;DHT22;849;48.780;9.216;2023-04-24T16:09:42;19.70;92.00
1704;DHT22;849;48.780;9.216;2023-04-24T16:12:08;21.30;85.80
1704;DHT22;849;48.780;9.216;2023-04-24T16:14:35;21.10;82.80
1704;DHT22;849;48.780;9.216;2023-04-24T16:17:01;20.40;77.40
1704;DHT22;849;48.780;9.216;2023-04-24T16:19:27;19.60;78.40
1704;DHT22;849;48.780;9.216;2023-04-24T16:21:53;18.90;87.40
1704;DHT22;849;48.780;9.216;2023-04-24T16:24:22;18.40;84.60